createdAt,value
2022-10-12T00:00:39.384Z,88.36
2022-10-12T00:01:47.372Z,88.24
2022-10-12T00:02:53.839Z,88.16
2022-10-12T00:03:59.116Z,88.15
2022-10-12T00:05:03.489Z,88.11
2022-10-12T00:06:15.270Z,87.84
2022-10-12T00:07:20.431Z,88.65
2022-10-12T00:08:25.174Z,89.03
2022-10-12T00:09:31.926Z,88.52
2022-10-12T00:10:42.160Z,88.62
2022-10-12T00:11:47.381Z,88.52
2022-10-12T00:12:53.309Z,88.63
2022-10-12T00:14:01.663Z,88.39
2022-10-12T00:15:08.291Z,88.45
2022-10-12T00:16:15.470Z,88.79
2022-10-12T00:17:19.585Z,88.54
2022-10-12T00:18:24.533Z,88.36
2022-10-12T00:19:29.568Z,88.96
2022-10-12T00:20:35.301Z,88.77
2022-10-12T00:21:40.855Z,89.00
2022-10-12T00:22:45.857Z,89.12
2022-10-12T00:23:49.861Z,88.80
2022-10-12T00:24:54.016Z,89.03
2022-10-12T00:26:06.755Z,89.42
2022-10-12T00:27:10.424Z,89.39
2022-10-12T00:28:14.121Z,89.73
2022-10-12T00:29:17.871Z,90.11
2022-10-12T00:30:21.797Z,90.08
2022-10-12T00:31:26.567Z,90.32
2022-10-12T00:32:30.212Z,90.68
2022-10-12T00:33:33.959Z,90.65
2022-10-12T00:34:37.572Z,91.11
2022-10-12T00:35:41.955Z,91.06
2022-10-12T00:36:46.074Z,91.27
2022-10-12T00:37:57.917Z,91.26
2022-10-12T00:39:08.774Z,91.51
2022-10-12T00:40:12.874Z,91.20
2022-10-12T00:41:21.411Z,92.19
2022-10-12T00:42:26.907Z,91.75
2022-10-12T00:43:42.043Z,91.61
2022-10-12T00:44:50.378Z,91.60
2022-10-12T00:45:55.116Z,91.56
2022-10-12T00:47:03.328Z,91.57
2022-10-12T00:48:08.881Z,91.34
2022-10-12T00:49:21.877Z,91.82
2022-10-12T00:50:34.904Z,91.66
2022-10-12T00:51:47.003Z,91.68
2022-10-12T00:53:18.317Z,91.76
2022-10-12T00:54:38.512Z,91.53
2022-10-12T00:55:59.760Z,91.02
2022-10-12T00:57:08.932Z,91.23
2022-10-12T00:58:15.538Z,91.25
2022-10-12T00:59:31.088Z,91.50
2022-10-12T01:00:38.322Z,91.43
2022-10-12T01:01:45.453Z,91.48
2022-10-12T01:02:53.850Z,91.31
2022-10-12T01:04:01.995Z,91.35
2022-10-12T01:05:12.417Z,91.22
2022-10-12T01:06:18.689Z,91.45
2022-10-12T01:07:23.734Z,91.28
2022-10-12T01:08:30.352Z,91.13
2022-10-12T01:09:40.447Z,91.14
2022-10-12T01:10:45.321Z,90.88
2022-10-12T01:11:50.695Z,90.60
2022-10-12T01:12:55.008Z,90.28
2022-10-12T01:13:59.367Z,90.58
2022-10-12T01:15:08.911Z,90.51
2022-10-12T01:16:55.252Z,90.78
2022-10-12T01:18:27.320Z,90.93
2022-10-12T01:20:27.784Z,90.60
2022-10-12T01:21:42.350Z,90.33
2022-10-12T01:23:40.188Z,90.44
2022-10-12T01:25:40.550Z,90.25
2022-10-12T01:27:00.287Z,90.66
2022-10-12T01:28:37.152Z,90.27
2022-10-12T01:30:10.274Z,90.26
2022-10-12T01:31:58.785Z,90.31
2022-10-12T01:33:32.416Z,89.86
2022-10-12T01:35:15.992Z,89.64
2022-10-12T01:36:46.400Z,90.01
2022-10-12T01:38:10.294Z,89.71
2022-10-12T01:39:36.862Z,89.94
2022-10-12T01:41:27.824Z,90.14
2022-10-12T01:42:38.330Z,90.36
2022-10-12T01:43:46.577Z,90.21
2022-10-12T01:44:50.517Z,90.07
2022-10-12T01:46:17.049Z,89.98
2022-10-12T01:47:23.157Z,89.82
2022-10-12T01:48:29.874Z,90.12
2022-10-12T01:49:38.906Z,90.28
2022-10-12T01:51:01.264Z,90.18
2022-10-12T01:52:32.285Z,90.18
2022-10-12T01:54:01.936Z,90.43
2022-10-12T01:55:31.815Z,90.59
2022-10-12T01:57:15.080Z,90.77
2022-10-12T01:58:43.665Z,90.90
2022-10-12T02:00:16.457Z,91.12
2022-10-12T02:03:08.896Z,90.88
2022-10-12T02:04:31.555Z,91.15
2022-10-12T02:05:56.059Z,91.06
2022-10-12T02:07:25.207Z,91.05
2022-10-12T02:08:50.849Z,91.05
2022-10-12T02:10:00.035Z,91.38
2022-10-12T02:11:11.143Z,91.42
2022-10-12T02:12:30.587Z,91.57
2022-10-12T02:14:02.099Z,91.04
2022-10-12T02:15:13.910Z,91.65
2022-10-12T02:16:30.617Z,91.78
2022-10-12T02:17:43.079Z,91.75
2022-10-12T02:18:57.764Z,92.06
2022-10-12T02:20:13.675Z,91.92
2022-10-12T02:21:24.923Z,91.70
2022-10-12T02:22:37.075Z,91.70
2022-10-12T02:23:42.099Z,91.56
2022-10-12T02:24:51.689Z,91.71
2022-10-12T02:26:02.731Z,92.09
2022-10-12T02:27:14.957Z,92.34
2022-10-12T02:28:25.499Z,92.79
2022-10-12T02:29:44.828Z,92.73
2022-10-12T02:31:13.548Z,92.40
2022-10-12T02:33:04.759Z,92.58
2022-10-12T02:34:19.447Z,92.61
2022-10-12T02:35:41.899Z,92.56
2022-10-12T02:37:14.240Z,92.68
2022-10-12T02:38:45.880Z,92.48
2022-10-12T02:39:55.223Z,92.63
2022-10-12T02:41:17.525Z,93.18
2022-10-12T02:42:58.508Z,92.80
2022-10-12T02:44:08.708Z,93.21
2022-10-12T02:45:17.280Z,93.06
2022-10-12T02:46:26.888Z,93.29
2022-10-12T02:47:35.983Z,93.25
2022-10-12T02:48:46.786Z,92.88
2022-10-12T02:49:54.410Z,92.77
2022-10-12T02:51:00.267Z,93.09
2022-10-12T02:52:07.213Z,92.77
2022-10-12T02:53:12.805Z,92.78
2022-10-12T02:54:16.650Z,92.74
2022-10-12T02:55:25.506Z,92.51
2022-10-12T02:56:29.620Z,92.53
2022-10-12T02:57:33.510Z,92.37
2022-10-12T02:58:37.486Z,92.15
2022-10-12T02:59:43.890Z,92.11
2022-10-12T03:00:47.671Z,92.21
2022-10-12T03:01:51.533Z,92.50
2022-10-12T03:02:55.056Z,92.02
2022-10-12T03:03:58.630Z,92.36
2022-10-12T03:05:02.302Z,92.03
2022-10-12T03:06:06.303Z,91.50
2022-10-12T03:07:09.827Z,91.81
2022-10-12T03:08:13.621Z,91.91
2022-10-12T03:09:17.343Z,91.66
2022-10-12T03:10:20.923Z,91.81
2022-10-12T03:11:25.080Z,91.64
2022-10-12T03:12:30.000Z,92.23
2022-10-12T03:13:35.191Z,92.33
2022-10-12T03:14:44.867Z,92.58
2022-10-12T03:15:49.641Z,92.76
2022-10-12T03:16:53.683Z,92.60
2022-10-12T03:17:58.641Z,92.28
2022-10-12T03:19:02.239Z,92.38
2022-10-12T03:20:08.675Z,92.48
2022-10-12T03:21:16.903Z,92.15
2022-10-12T03:22:25.057Z,92.34
2022-10-12T03:23:31.534Z,92.53
2022-10-12T03:24:38.046Z,92.14
2022-10-12T03:25:44.508Z,92.36
2022-10-12T03:26:48.332Z,92.00
2022-10-12T03:27:56.194Z,91.85
2022-10-12T03:29:03.841Z,91.85
2022-10-12T03:30:13.349Z,91.59
2022-10-12T03:31:20.385Z,91.70
2022-10-12T03:32:24.076Z,91.91
2022-10-12T03:33:28.044Z,92.14
2022-10-12T03:34:32.441Z,92.30
2022-10-12T03:35:37.815Z,92.24
2022-10-12T03:36:41.519Z,92.18
2022-10-12T03:37:46.704Z,92.23
2022-10-12T03:38:50.565Z,92.15
2022-10-12T03:39:55.108Z,92.18
2022-10-12T03:41:06.418Z,92.15
2022-10-12T03:42:16.493Z,92.55
2022-10-12T03:43:21.437Z,92.35
2022-10-12T03:44:29.270Z,92.07
2022-10-12T03:45:33.415Z,92.31
2022-10-12T03:46:38.101Z,92.34
2022-10-12T03:47:46.235Z,92.33
2022-10-12T03:48:54.800Z,92.47
2022-10-12T03:50:00.657Z,92.08
2022-10-12T03:51:06.107Z,92.05
2022-10-12T03:52:14.564Z,91.83
2022-10-12T03:53:21.673Z,91.72
2022-10-12T03:54:25.688Z,92.00
2022-10-12T03:55:30.470Z,91.94
2022-10-12T03:56:37.402Z,91.82
2022-10-12T03:57:42.002Z,91.89
2022-10-12T03:58:59.713Z,92.09
2022-10-12T04:00:06.689Z,92.01
2022-10-12T04:01:16.339Z,92.50
2022-10-12T04:02:21.400Z,92.38
2022-10-12T04:03:29.241Z,92.89
2022-10-12T04:04:37.566Z,92.83
2022-10-12T04:05:58.749Z,93.12
2022-10-12T04:07:02.339Z,92.95
2022-10-12T04:08:07.244Z,93.26
2022-10-12T04:09:12.292Z,92.95
2022-10-12T04:10:16.845Z,92.99
2022-10-12T04:11:20.899Z,93.04
2022-10-12T04:12:25.498Z,92.88
2022-10-12T04:13:29.620Z,92.88
2022-10-12T04:14:33.310Z,92.57
2022-10-12T04:15:42.196Z,92.79
2022-10-12T04:16:46.966Z,92.68
2022-10-12T04:17:53.906Z,92.74
2022-10-12T04:19:00.030Z,92.48
2022-10-12T04:20:17.771Z,92.71
2022-10-12T04:21:26.312Z,93.17
2022-10-12T04:22:30.334Z,93.24
2022-10-12T04:23:33.922Z,93.19
2022-10-12T04:24:37.657Z,93.69
2022-10-12T04:25:41.454Z,93.44
2022-10-12T04:26:46.334Z,93.54
2022-10-12T04:27:50.171Z,93.56
2022-10-12T04:28:56.453Z,93.69
2022-10-12T04:30:00.026Z,93.71
2022-10-12T04:31:03.675Z,94.07
2022-10-12T04:32:12.329Z,93.73
2022-10-12T04:33:16.277Z,94.02
2022-10-12T04:34:20.702Z,94.23
2022-10-12T04:35:30.275Z,94.23
2022-10-12T04:36:41.550Z,94.25
2022-10-12T04:37:45.770Z,94.21
2022-10-12T04:38:51.951Z,94.52
2022-10-12T04:39:56.251Z,94.52
2022-10-12T04:41:00.035Z,95.28
2022-10-12T04:42:10.193Z,95.33
2022-10-12T04:43:19.918Z,95.04
2022-10-12T04:44:31.948Z,95.40
2022-10-12T04:45:39.468Z,95.03
2022-10-12T04:46:45.741Z,95.27
2022-10-12T04:47:53.370Z,95.54
2022-10-12T04:49:02.220Z,95.77
2022-10-12T04:50:13.900Z,95.51
2022-10-12T04:51:20.442Z,95.63
2022-10-12T04:52:24.758Z,95.77
2022-10-12T04:53:33.074Z,95.45
2022-10-12T04:54:45.033Z,95.68
2022-10-12T04:55:55.713Z,95.67
2022-10-12T04:57:03.859Z,95.49
2022-10-12T04:58:22.534Z,96.56
2022-10-12T04:59:41.814Z,96.22
2022-10-12T05:00:50.297Z,96.41
2022-10-12T05:01:54.650Z,96.80
2022-10-12T05:02:58.673Z,96.64
2022-10-12T05:04:02.596Z,96.58
2022-10-12T05:05:08.269Z,96.72
2022-10-12T05:06:12.580Z,96.34
2022-10-12T05:07:16.622Z,96.59
2022-10-12T05:08:21.754Z,96.19
2022-10-12T05:09:25.915Z,96.01
2022-10-12T05:10:30.628Z,95.90
2022-10-12T05:11:37.699Z,95.77
2022-10-12T05:12:43.232Z,95.72
2022-10-12T05:13:47.114Z,95.55
2022-10-12T05:14:51.277Z,95.85
2022-10-12T05:15:58.837Z,96.14
2022-10-12T05:17:02.830Z,96.89
2022-10-12T05:19:41.029Z,96.80
2022-10-12T05:20:47.118Z,96.40
2022-10-12T05:21:55.280Z,96.51
2022-10-12T05:22:59.595Z,95.95
2022-10-12T05:24:03.337Z,95.90
2022-10-12T05:25:08.230Z,96.59
2022-10-12T05:26:12.245Z,97.21
2022-10-12T05:27:16.313Z,97.03
2022-10-12T05:28:21.766Z,97.13
2022-10-12T05:29:28.101Z,96.41
2022-10-12T05:30:32.225Z,96.55
2022-10-12T05:31:37.002Z,96.38
2022-10-12T05:32:41.813Z,96.44
2022-10-12T05:33:46.291Z,96.86
2022-10-12T05:34:51.456Z,95.80
2022-10-12T05:35:58.335Z,95.13
2022-10-12T05:37:02.801Z,94.43
2022-10-12T05:38:07.014Z,94.26
2022-10-12T05:39:10.970Z,93.65
2022-10-12T05:40:16.164Z,93.83
2022-10-12T05:41:20.886Z,94.02
2022-10-12T05:42:25.039Z,93.94
2022-10-12T05:43:30.045Z,93.78
2022-10-12T05:44:37.935Z,93.32
2022-10-12T05:45:46.887Z,93.20
2022-10-12T05:46:53.534Z,93.46
2022-10-12T05:47:58.810Z,93.41
2022-10-12T05:49:04.017Z,93.08
2022-10-12T05:50:10.388Z,92.96
2022-10-12T05:51:15.900Z,92.82
2022-10-12T05:52:22.787Z,92.33
2022-10-12T05:53:30.158Z,92.22
2022-10-12T05:54:36.945Z,91.48
2022-10-12T05:55:41.799Z,91.12
2022-10-12T05:56:46.637Z,91.50
2022-10-12T05:57:52.075Z,91.59
2022-10-12T05:58:57.024Z,91.75
2022-10-12T06:00:01.799Z,91.02
2022-10-12T06:01:13.943Z,90.84
2022-10-12T06:02:20.794Z,90.22
2022-10-12T06:03:35.206Z,90.55
2022-10-12T06:04:42.117Z,90.63
2022-10-12T06:05:52.056Z,90.05
2022-10-12T06:06:58.024Z,90.19
2022-10-12T06:08:01.621Z,90.26
2022-10-12T06:09:05.894Z,90.56
2022-10-12T06:10:13.682Z,90.50
2022-10-12T06:11:17.884Z,90.37
2022-10-12T06:12:25.428Z,90.23
2022-10-12T06:13:30.341Z,89.95
2022-10-12T06:14:34.599Z,89.44
2022-10-12T06:15:38.581Z,89.21
2022-10-12T06:16:42.396Z,88.93
2022-10-12T06:17:48.984Z,88.43
2022-10-12T06:18:55.307Z,87.26
2022-10-12T06:19:59.293Z,87.64
2022-10-12T06:21:28.524Z,87.32
2022-10-12T06:22:29.737Z,86.64
2022-10-12T06:23:33.684Z,86.61
2022-10-12T06:24:38.553Z,86.93
2022-10-12T06:25:42.607Z,86.37
2022-10-12T06:26:46.277Z,85.98
2022-10-12T06:27:50.657Z,86.45
2022-10-12T06:28:54.324Z,86.17
2022-10-12T06:29:58.136Z,86.71
2022-10-12T06:31:02.068Z,86.03
2022-10-12T06:32:05.990Z,85.91
2022-10-12T06:33:10.045Z,86.12
2022-10-12T06:34:13.935Z,86.32
2022-10-12T06:35:19.946Z,85.88
2022-10-12T06:36:24.256Z,85.74
2022-10-12T06:37:49.189Z,85.49
2022-10-12T06:38:54.366Z,86.09
2022-10-12T06:39:58.133Z,85.78
2022-10-12T06:41:01.800Z,85.54
2022-10-12T06:42:06.258Z,84.66
2022-10-12T06:43:10.359Z,84.37
2022-10-12T06:44:14.553Z,84.59
2022-10-12T06:45:19.460Z,84.28
2022-10-12T06:46:23.272Z,84.24
2022-10-12T06:47:29.291Z,84.08
2022-10-12T06:48:32.990Z,84.55
2022-10-12T06:49:36.920Z,84.46
2022-10-12T06:50:40.883Z,84.26
2022-10-12T06:51:44.688Z,84.68
2022-10-12T06:52:48.626Z,84.35
2022-10-12T06:53:56.877Z,84.08
2022-10-12T06:55:00.905Z,83.97
2022-10-12T06:56:12.150Z,83.15
2022-10-12T06:57:15.994Z,83.65
2022-10-12T06:58:19.994Z,83.97
2022-10-12T06:59:24.194Z,82.75
2022-10-12T07:00:28.278Z,82.61
2022-10-12T07:01:32.096Z,82.35
2022-10-12T07:02:36.645Z,81.55
2022-10-12T07:03:40.917Z,82.01
2022-10-12T07:04:49.195Z,81.61
2022-10-12T07:05:53.135Z,81.17
2022-10-12T07:06:57.007Z,80.85
2022-10-12T07:08:01.112Z,80.34
2022-10-12T07:09:05.639Z,80.40
2022-10-12T07:10:11.340Z,80.85
2022-10-12T07:11:15.702Z,80.31
2022-10-12T07:12:20.311Z,80.30
2022-10-12T07:13:25.058Z,79.65
2022-10-12T07:14:29.337Z,80.12
2022-10-12T07:15:33.095Z,78.79
2022-10-12T07:16:40.066Z,77.29
2022-10-12T07:17:44.804Z,77.41
2022-10-12T07:18:48.789Z,77.25
2022-10-12T07:19:52.926Z,75.43
2022-10-12T07:21:00.202Z,74.06
2022-10-12T07:22:04.372Z,74.48
2022-10-12T07:23:08.819Z,73.58
2022-10-12T07:24:13.639Z,74.11
2022-10-12T07:25:18.006Z,70.96
2022-10-12T07:26:21.842Z,70.54
2022-10-12T07:27:26.256Z,70.52
2022-10-12T07:28:30.586Z,70.18
2022-10-12T07:29:35.201Z,68.48
2022-10-12T07:30:39.538Z,65.32
2022-10-12T07:31:46.407Z,63.07
2022-10-12T07:32:55.537Z,62.06
2022-10-12T07:33:59.392Z,62.29
2022-10-12T07:35:03.350Z,61.62
2022-10-12T07:36:21.389Z,60.27
2022-10-12T07:37:25.905Z,57.57
2022-10-12T07:38:30.166Z,57.12
2022-10-12T07:39:33.983Z,54.42
2022-10-12T07:40:37.930Z,54.95
2022-10-12T07:41:42.247Z,54.97
2022-10-12T07:43:11.866Z,55.05
2022-10-12T07:44:10.832Z,54.09
2022-10-12T07:45:14.670Z,53.91
2022-10-12T07:46:18.310Z,53.58
2022-10-12T07:47:22.164Z,52.55
2022-10-12T07:48:25.790Z,52.41
2022-10-12T07:49:29.932Z,53.08
2022-10-12T07:50:33.757Z,52.10
2022-10-12T07:51:37.975Z,51.39
2022-10-12T07:52:42.712Z,50.42
2022-10-12T07:53:47.041Z,50.57
2022-10-12T07:54:50.863Z,49.88
2022-10-12T07:56:05.499Z,50.09
2022-10-12T07:57:09.425Z,49.97
2022-10-12T07:58:13.564Z,49.50
2022-10-12T07:59:17.223Z,47.82
2022-10-12T08:00:22.284Z,48.42
2022-10-12T08:01:32.832Z,48.07
2022-10-12T08:02:37.046Z,47.86
2022-10-12T08:03:41.088Z,46.86
2022-10-12T08:04:45.759Z,47.23
2022-10-12T08:05:49.793Z,47.37
2022-10-12T08:06:53.358Z,46.41
2022-10-12T08:07:57.166Z,46.45
2022-10-12T08:09:03.295Z,47.02
2022-10-12T08:10:07.461Z,45.78
2022-10-12T08:11:12.680Z,45.63
2022-10-12T08:12:17.160Z,45.03
2022-10-12T08:13:21.055Z,45.20
2022-10-12T08:14:24.856Z,44.14
2022-10-12T08:15:28.503Z,43.94
2022-10-12T08:16:32.954Z,44.00
2022-10-12T08:17:36.866Z,43.33
2022-10-12T08:18:41.324Z,42.87
2022-10-12T08:19:45.224Z,41.65
2022-10-12T08:20:48.960Z,41.62
2022-10-12T08:21:52.966Z,42.11
2022-10-12T08:22:56.555Z,42.32
2022-10-12T08:24:00.305Z,42.98
2022-10-12T08:25:04.421Z,41.32
2022-10-12T08:26:08.147Z,41.88
2022-10-12T08:27:11.893Z,41.41
2022-10-12T08:28:15.417Z,39.66
2022-10-12T08:29:19.125Z,40.04
2022-10-12T08:30:27.013Z,39.41
2022-10-12T08:31:30.800Z,39.19
2022-10-12T08:32:34.799Z,38.66
2022-10-12T08:33:39.007Z,37.97
2022-10-12T08:34:42.549Z,37.30
2022-10-12T08:35:50.688Z,36.79
2022-10-12T08:36:54.538Z,37.23
2022-10-12T08:37:58.469Z,36.67
2022-10-12T08:39:02.743Z,36.89
2022-10-12T08:40:08.339Z,36.82
2022-10-12T08:41:48.762Z,35.64
2022-10-12T08:43:29.345Z,36.51
2022-10-12T08:44:57.189Z,35.88
2022-10-12T08:46:04.394Z,35.73
2022-10-12T08:47:41.988Z,36.42
2022-10-12T08:49:12.981Z,35.97
2022-10-12T08:50:52.973Z,37.07
2022-10-12T08:52:04.528Z,37.81
2022-10-12T08:53:23.252Z,38.07
2022-10-12T08:54:49.712Z,38.04
2022-10-12T08:55:53.699Z,38.48
2022-10-12T08:56:58.250Z,38.94
2022-10-12T08:58:03.253Z,39.79
2022-10-12T08:59:17.196Z,39.53
2022-10-12T09:00:21.185Z,39.68
2022-10-12T09:01:57.841Z,39.94
2022-10-12T09:03:27.420Z,40.57
2022-10-12T09:05:17.714Z,40.51
2022-10-12T09:06:28.914Z,40.83
2022-10-12T09:07:42.364Z,40.61
2022-10-12T09:09:18.597Z,40.04
2022-10-12T09:11:25.468Z,39.52
2022-10-12T09:12:43.993Z,39.58
2022-10-12T09:13:59.922Z,39.40
2022-10-12T09:15:15.083Z,40.01
2022-10-12T09:16:25.404Z,40.19
2022-10-12T09:17:50.125Z,40.86
2022-10-12T09:19:01.202Z,41.75
2022-10-12T09:20:19.182Z,41.88
2022-10-12T09:21:26.824Z,42.90
2022-10-12T09:22:34.419Z,43.98
2022-10-12T09:23:45.520Z,44.91
2022-10-12T09:24:53.154Z,45.47
2022-10-12T09:26:15.915Z,45.31
2022-10-12T09:27:20.809Z,45.79
2022-10-12T09:28:40.721Z,45.38
2022-10-12T09:29:55.466Z,45.54
2022-10-12T09:31:23.708Z,46.00
2022-10-12T09:33:17.698Z,47.05
2022-10-12T09:34:21.481Z,47.05
2022-10-12T09:35:25.720Z,47.13
2022-10-12T09:36:35.402Z,46.81
2022-10-12T09:37:40.589Z,46.92
2022-10-12T09:38:44.260Z,47.17
2022-10-12T09:39:49.041Z,47.28
2022-10-12T09:40:53.064Z,47.79
2022-10-12T09:41:56.794Z,48.76
2022-10-12T09:43:03.841Z,48.94
2022-10-12T09:44:26.933Z,49.68
2022-10-12T09:45:34.904Z,49.76
2022-10-12T09:46:48.813Z,50.23
2022-10-12T09:48:16.284Z,51.49
2022-10-12T09:49:20.579Z,50.51
2022-10-12T09:51:03.392Z,50.66
2022-10-12T09:52:09.388Z,50.75
2022-10-12T09:53:24.602Z,50.09
2022-10-12T09:54:29.549Z,49.64
2022-10-12T09:55:33.567Z,50.23
2022-10-12T09:56:44.701Z,50.50
2022-10-12T09:58:03.022Z,50.34
2022-10-12T09:59:26.395Z,50.05
2022-10-12T10:00:33.693Z,50.60
2022-10-12T10:01:39.345Z,50.93
2022-10-12T10:02:51.883Z,51.32
2022-10-12T10:04:27.247Z,51.25
2022-10-12T10:05:36.335Z,51.09
2022-10-12T10:06:44.954Z,51.48
2022-10-12T10:07:48.969Z,52.03
2022-10-12T10:08:52.948Z,52.36
2022-10-12T10:10:28.324Z,51.61
2022-10-12T10:11:33.721Z,51.93
2022-10-12T10:13:03.105Z,53.10
2022-10-12T10:14:15.569Z,52.65
2022-10-12T10:15:39.478Z,52.51
2022-10-12T10:16:52.587Z,52.53
2022-10-12T10:18:54.554Z,52.87
2022-10-12T10:20:03.080Z,52.82
2022-10-12T10:21:24.728Z,53.09
2022-10-12T10:22:30.978Z,52.95
2022-10-12T10:23:51.673Z,52.99
2022-10-12T10:25:00.408Z,53.44
2022-10-12T10:26:20.310Z,53.40
2022-10-12T10:27:40.346Z,52.67
2022-10-12T10:28:47.148Z,52.53
2022-10-12T10:30:04.696Z,52.42
2022-10-12T10:31:21.409Z,52.14
2022-10-12T10:32:30.251Z,52.09
2022-10-12T10:33:36.960Z,52.69
2022-10-12T10:34:43.928Z,52.97
2022-10-12T10:36:00.667Z,53.24
2022-10-12T10:37:06.499Z,53.19
2022-10-12T10:38:15.932Z,53.37
2022-10-12T10:39:40.782Z,52.61
2022-10-12T10:40:52.880Z,52.22
2022-10-12T10:42:09.871Z,52.75
2022-10-12T10:43:30.722Z,52.39
2022-10-12T10:44:36.531Z,51.82
2022-10-12T10:45:58.812Z,51.39
2022-10-12T10:47:10.824Z,51.28
2022-10-12T10:48:23.547Z,51.15
2022-10-12T10:49:55.923Z,51.66
2022-10-12T10:51:07.296Z,51.71
2022-10-12T10:52:36.607Z,50.79
2022-10-12T10:53:50.518Z,51.28
2022-10-12T10:55:23.674Z,51.31
2022-10-12T10:56:32.146Z,51.46
2022-10-12T10:57:40.632Z,51.75
2022-10-12T10:58:46.865Z,52.02
2022-10-12T11:00:26.459Z,51.91
2022-10-12T11:01:52.943Z,52.13
2022-10-12T11:03:04.102Z,51.95
2022-10-12T11:04:39.981Z,51.54
2022-10-12T11:05:58.238Z,51.57
2022-10-12T11:07:23.976Z,52.04
2022-10-12T11:08:32.227Z,51.79
2022-10-12T11:09:45.594Z,51.50
2022-10-12T11:11:13.140Z,51.13
2022-10-12T11:12:31.264Z,50.27
2022-10-12T11:13:49.056Z,50.50
2022-10-12T11:15:01.559Z,50.35
2022-10-12T11:16:22.005Z,50.44
2022-10-12T11:17:44.312Z,50.93
2022-10-12T11:18:56.623Z,50.87
2022-10-12T11:20:40.157Z,50.66
2022-10-12T11:21:57.980Z,51.20
2022-10-12T11:23:23.730Z,51.19
2022-10-12T11:24:40.794Z,51.42
2022-10-12T11:26:19.939Z,51.57
2022-10-12T11:27:36.255Z,50.93
2022-10-12T11:28:42.470Z,51.35
2022-10-12T11:29:58.153Z,51.36
2022-10-12T11:31:31.837Z,51.29
2022-10-12T11:32:48.718Z,51.42
2022-10-12T11:33:56.939Z,51.72
2022-10-12T11:35:06.040Z,51.76
2022-10-12T11:36:19.652Z,51.13
2022-10-12T11:37:36.353Z,51.15
2022-10-12T11:38:48.483Z,50.82
2022-10-12T11:39:55.564Z,50.97
2022-10-12T11:41:34.549Z,51.25
2022-10-12T11:42:43.780Z,50.87
2022-10-12T11:44:15.827Z,51.03
2022-10-12T11:45:41.150Z,51.22
2022-10-12T11:47:04.837Z,51.24
2022-10-12T11:48:15.341Z,51.17
2022-10-12T11:49:55.894Z,51.18
2022-10-12T11:51:04.191Z,50.92
2022-10-12T11:52:13.334Z,50.33
2022-10-12T11:53:28.876Z,50.79
2022-10-12T11:55:05.710Z,50.71
2022-10-12T11:56:35.263Z,51.04
2022-10-12T11:57:39.843Z,51.16
2022-10-12T11:59:00.377Z,50.81
2022-10-12T12:00:28.669Z,51.36
2022-10-12T12:01:58.402Z,51.28
2022-10-12T12:03:14.428Z,50.97
2022-10-12T12:04:43.414Z,50.17
2022-10-12T12:05:48.509Z,50.58
2022-10-12T12:07:04.890Z,50.58
2022-10-12T12:08:39.256Z,50.11
2022-10-12T12:09:49.504Z,50.46
2022-10-12T12:11:28.616Z,50.61
2022-10-12T12:12:33.009Z,50.59
2022-10-12T12:13:37.536Z,49.98
2022-10-12T12:15:00.181Z,49.26
2022-10-12T12:16:12.653Z,49.37
2022-10-12T12:17:19.551Z,49.60
2022-10-12T12:18:35.046Z,49.84
2022-10-12T12:19:42.681Z,49.36
2022-10-12T12:20:49.107Z,49.50
2022-10-12T12:22:32.073Z,49.51
2022-10-12T12:23:54.039Z,49.67
2022-10-12T12:25:10.836Z,50.06
2022-10-12T12:26:18.167Z,49.57
2022-10-12T12:27:42.268Z,49.00
2022-10-12T12:28:52.613Z,48.56
2022-10-12T12:29:58.540Z,48.68
2022-10-12T12:31:13.676Z,48.45
2022-10-12T12:32:17.749Z,48.42
2022-10-12T12:33:21.442Z,48.03
2022-10-12T12:34:27.025Z,48.12
2022-10-12T12:35:40.092Z,48.29
2022-10-12T12:36:51.649Z,48.04
2022-10-12T12:38:13.390Z,48.48
2022-10-12T12:39:34.124Z,48.26
2022-10-12T12:40:53.887Z,48.51
2022-10-12T12:42:02.495Z,48.20
2022-10-12T12:43:29.135Z,48.49
2022-10-12T12:44:36.858Z,48.44
2022-10-12T12:45:58.084Z,48.67
2022-10-12T12:47:01.866Z,48.54
2022-10-12T12:48:10.965Z,48.52
2022-10-12T12:49:37.751Z,48.06
2022-10-12T12:50:41.835Z,48.52
2022-10-12T12:51:46.272Z,48.51
2022-10-12T12:52:52.262Z,47.98
2022-10-12T12:54:21.750Z,47.92
2022-10-12T12:56:14.432Z,47.94
2022-10-12T12:57:54.398Z,48.34
2022-10-12T12:59:22.366Z,48.15
2022-10-12T13:00:52.402Z,48.39
2022-10-12T13:02:20.623Z,48.53
2022-10-12T13:04:21.208Z,48.90
2022-10-12T13:06:07.643Z,49.07
2022-10-12T13:07:39.572Z,49.51
2022-10-12T13:08:58.701Z,49.58
2022-10-12T13:10:47.040Z,49.76
2022-10-12T13:12:14.613Z,49.67
2022-10-12T13:14:00.648Z,49.49
2022-10-12T13:15:24.676Z,49.65
2022-10-12T13:18:53.210Z,49.82
2022-10-12T13:19:57.054Z,50.05
2022-10-12T13:21:01.682Z,50.12
2022-10-12T13:22:19.269Z,49.71
2022-10-12T13:23:27.245Z,49.74
2022-10-12T13:24:42.157Z,49.31
2022-10-12T13:25:57.271Z,49.21
2022-10-12T13:27:18.669Z,49.25
2022-10-12T13:28:29.445Z,48.54
2022-10-12T13:29:48.955Z,48.77
2022-10-12T13:31:02.919Z,48.72
2022-10-12T13:32:26.900Z,48.71
2022-10-12T13:33:54.082Z,49.16
2022-10-12T13:35:08.588Z,48.33
2022-10-12T13:36:29.633Z,48.23
2022-10-12T13:37:35.739Z,48.38
2022-10-12T13:38:40.340Z,48.43
2022-10-12T13:39:47.374Z,48.20
2022-10-12T13:41:07.446Z,48.50
2022-10-12T13:42:35.874Z,48.82
2022-10-12T13:43:48.731Z,49.20
2022-10-12T13:44:52.836Z,49.05
2022-10-12T13:45:56.580Z,49.22
2022-10-12T13:47:07.892Z,49.25
2022-10-12T13:48:39.969Z,48.54
2022-10-12T13:49:44.224Z,48.69
2022-10-12T13:51:01.309Z,48.86
2022-10-12T13:52:14.201Z,48.39
2022-10-12T13:53:17.915Z,48.65
2022-10-12T13:54:25.580Z,48.65
2022-10-12T13:55:31.759Z,48.67
2022-10-12T13:56:35.648Z,48.80
2022-10-12T13:57:48.515Z,48.54
2022-10-12T13:59:06.872Z,48.95
2022-10-12T14:00:17.289Z,48.90
2022-10-12T14:01:21.016Z,48.81
2022-10-12T14:02:31.979Z,48.85
2022-10-12T14:03:45.826Z,48.67
2022-10-12T14:04:53.831Z,48.46
2022-10-12T14:05:59.867Z,48.19
2022-10-12T14:07:19.630Z,48.01
2022-10-12T14:08:29.288Z,47.92
2022-10-12T14:09:52.199Z,47.77
2022-10-12T14:10:58.881Z,47.96
2022-10-12T14:12:03.120Z,47.96
2022-10-12T14:13:13.666Z,47.76
2022-10-12T14:14:35.639Z,47.89
2022-10-12T14:15:41.881Z,47.91
2022-10-12T14:16:45.851Z,47.73
2022-10-12T14:17:51.148Z,47.24
2022-10-12T14:18:55.254Z,47.28
2022-10-12T14:20:39.076Z,47.52
2022-10-12T14:21:48.265Z,47.05
2022-10-12T14:22:52.066Z,47.18
2022-10-12T14:24:07.128Z,47.14
2022-10-12T14:25:17.792Z,47.25
2022-10-12T14:26:53.058Z,47.09
2022-10-12T14:28:06.913Z,46.95
2022-10-12T14:29:34.163Z,46.98
2022-10-12T14:30:51.319Z,47.15
2022-10-12T14:31:58.892Z,46.99
2022-10-12T14:33:18.063Z,47.18
2022-10-12T14:34:27.596Z,47.58
2022-10-12T14:35:32.402Z,47.40
2022-10-12T14:36:36.228Z,47.58
2022-10-12T14:37:40.073Z,47.82
2022-10-12T14:38:46.604Z,48.07
2022-10-12T14:39:52.736Z,48.06
2022-10-12T14:40:56.713Z,48.02
2022-10-12T14:42:18.063Z,48.17
2022-10-12T14:43:24.582Z,48.20
2022-10-12T14:44:29.572Z,48.05
2022-10-12T14:45:34.553Z,48.34
2022-10-12T14:47:07.810Z,48.48
2022-10-12T14:48:20.308Z,48.49
2022-10-12T14:49:28.008Z,47.88
2022-10-12T14:50:33.355Z,47.75
2022-10-12T14:51:40.356Z,47.64
2022-10-12T14:52:52.295Z,47.38
2022-10-12T14:54:04.905Z,47.60
2022-10-12T14:55:32.123Z,47.00
2022-10-12T14:56:36.334Z,47.50
2022-10-12T14:57:40.502Z,47.51
2022-10-12T14:58:44.269Z,47.57
2022-10-12T14:59:48.801Z,47.50
2022-10-12T15:00:53.209Z,47.86
2022-10-12T15:01:56.877Z,47.86
2022-10-12T15:03:02.587Z,48.05
2022-10-12T15:04:06.141Z,47.87
2022-10-12T15:05:16.331Z,47.91
2022-10-12T15:06:20.394Z,48.45
2022-10-12T15:07:31.213Z,48.08
2022-10-12T15:08:34.836Z,48.31
2022-10-12T15:09:38.489Z,48.23
2022-10-12T15:10:42.595Z,48.33
2022-10-12T15:11:46.731Z,48.35
2022-10-12T15:12:51.859Z,48.28
2022-10-12T15:13:55.455Z,48.64
2022-10-12T15:15:33.691Z,48.71
2022-10-12T15:16:37.620Z,48.64
2022-10-12T15:17:41.587Z,48.67
2022-10-12T15:18:45.456Z,49.06
2022-10-12T15:19:51.356Z,49.09
2022-10-12T15:20:58.784Z,49.06
2022-10-12T15:22:02.673Z,49.40
2022-10-12T15:23:07.065Z,49.48
2022-10-12T15:24:15.578Z,49.42
2022-10-12T15:25:24.876Z,49.53
2022-10-12T15:26:28.851Z,49.72
2022-10-12T15:27:32.993Z,49.73
2022-10-12T15:28:36.889Z,50.10